Time;durP1;ratioP1;P1;durP2;ratioP2;P2;SDS_P1;SDS_P2;PMS_P1;PMS_P2;Temp;Humidity;BMP_temperature;BMP_pressure;BME280_temperature;BME280_humidity;BME280_pressure;Samples;Min_cycle;Max_cycle;Signal;HPM_P1;HPM_P2
2023/09/01 00:00:57;;;;;;;;;;;13.50;99.90;;;;;;2075417;28;20179;-70
2023/09/01 00:02:14;;;;;;;;;;;13.50;99.90;;;;;;2072314;28;20016;-69
2023/09/01 00:03:26;;;;;;;;;;;13.50;99.90;;;;;;2075561;28;20372;-69
2023/09/01 00:04:26;;;;;;;;;;;13.50;99.90;;;;;;2083117;28;20004;-69
2023/09/01 00:05:27;;;;;;;;;;;13.50;99.90;;;;;;2083134;28;20790;-69
2023/09/01 00:06:27;;;;;;;;;;;13.50;99.90;;;;;;2075703;28;19960;-68
2023/09/01 00:07:28;;;;;;;;;;;13.50;99.90;;;;;;2074622;28;20124;-70
2023/09/01 00:08:29;;;;;;;;;;;13.50;99.90;;;;;;2066541;28;19976;-70
2023/09/01 00:09:29;;;;;;;;;;;13.50;99.90;;;;;;2070080;28;19924;-69
2023/09/01 00:10:30;;;;;;;;;;;13.50;99.90;;;;;;2075733;28;20036;-69
2023/09/01 00:11:30;;;;;;;;;;;13.50;99.90;;;;;;2076671;28;19924;-69
2023/09/01 00:12:31;;;;;;;;;;;13.50;99.90;;;;;;2077146;28;20419;-69
2023/09/01 00:13:32;;;;;;;;;;;13.50;99.90;;;;;;2076744;28;20489;-70
2023/09/01 00:14:32;;;;;;;;;;;13.50;99.90;;;;;;2068433;28;19983;-69
2023/09/01 00:15:33;;;;;;;;;;;13.50;99.90;;;;;;2075923;28;19940;-69
2023/09/01 00:16:34;;;;;;;;;;;13.50;99.90;;;;;;2075293;28;20343;-69
2023/09/01 00:17:34;;;;;;;;;;;13.60;99.90;;;;;;2075205;28;20508;-68
2023/09/01 00:18:36;;;;;;;;;;;13.60;99.90;;;;;;2075664;28;20091;-70
2023/09/01 00:19:37;;;;;;;;;;;13.60;99.90;;;;;;2075465;28;19916;-70
2023/09/01 00:20:37;;;;;;;;;;;13.60;99.90;;;;;;2075205;28;20372;-70
2023/09/01 00:21:39;;;;;;;;;;;13.70;99.90;;;;;;2075200;28;19917;-69
2023/09/01 00:22:40;;;;;;;;;;;13.70;99.90;;;;;;2074950;28;19940;-70
2023/09/01 00:23:40;;;;;;;;;;;13.70;99.90;;;;;;2071876;28;20003;-70
2023/09/01 00:24:41;;;;;;;;;;;13.70;99.90;;;;;;2075412;28;19989;-70
2023/09/01 00:25:41;;;;;;;;;;;13.80;99.90;;;;;;2075285;28;19917;-69
2023/09/01 00:26:42;;;;;;;;;;;13.80;99.90;;;;;;2075300;28;19928;-69
2023/09/01 00:27:42;;;;;;;;;;;13.80;99.90;;;;;;2075333;28;20235;-69
2023/09/01 00:28:43;;;;;;;;;;;13.80;99.90;;;;;;2066514;28;19924;-69
2023/09/01 00:29:43;;;;;;;;;;;13.90;99.90;;;;;;2066641;28;19914;-69
2023/09/01 00:30:55;;;;;;;;;;;13.90;99.90;;;;;;2074593;28;19917;-69
2023/09/01 00:31:55;;;;;;;;;;;13.90;99.90;;;;;;2074937;28;19921;-69
2023/09/01 00:32:56;;;;;;;;;;;13.90;99.90;;;;;;2074708;28;19913;-69
2023/09/01 00:33:57;;;;;;;;;;;13.90;99.90;;;;;;2078497;28;20395;-69
2023/09/01 00:34:58;;;;;;;;;;;13.90;99.90;;;;;;2074425;28;19921;-69
2023/09/01 00:35:59;;;;;;;;;;;14.00;99.90;;;;;;2066405;28;19925;-69
2023/09/01 00:36:59;;;;;;;;;;;14.00;99.90;;;;;;2058297;28;20283;-69
2023/09/01 00:38:00;;;;;;;;;;;14.00;99.90;;;;;;2066408;28;20383;-69
2023/09/01 00:39:00;;;;;;;;;;;14.00;99.90;;;;;;2074536;28;19917;-69
2023/09/01 00:40:01;;;;;;;;;;;14.00;99.90;;;;;;2074590;28;19913;-69
2023/09/01 00:41:01;;;;;;;;;;;14.10;99.90;;;;;;2074270;28;19917;-69
2023/09/01 00:42:02;;;;;;;;;;;14.10;99.90;;;;;;2074700;28;20430;-68
2023/09/01 00:43:03;;;;;;;;;;;14.10;99.90;;;;;;2074264;28;19917;-69
2023/09/01 00:44:03;;;;;;;;;;;14.10;99.90;;;;;;2074611;28;19913;-69
2023/09/01 00:45:04;;;;;;;;;;;14.10;99.90;;;;;;2074495;28;19927;-69
2023/09/01 00:46:05;;;;;;;;;;;14.10;99.90;;;;;;2066323;28;19917;-69
2023/09/01 00:47:05;;;;;;;;;;;14.10;99.90;;;;;;2074831;28;19917;-70
2023/09/01 00:48:07;;;;;;;;;;;14.10;99.90;;;;;;2083887;28;20016;-70
2023/09/01 00:49:08;;;;;;;;;;;14.10;99.90;;;;;;2067925;28;19924;-70
2023/09/01 00:50:10;;;;;;;;;;;14.20;99.90;;;;;;2064134;28;19917;-70
2023/09/01 00:51:10;;;;;;;;;;;14.10;99.90;;;;;;2068284;28;19921;-70
2023/09/01 00:52:11;;;;;;;;;;;14.10;99.90;;;;;;2063446;28;20384;-70
2023/09/01 00:53:11;;;;;;;;;;;14.10;99.90;;;;;;2076171;28;19917;-68
2023/09/01 00:54:13;;;;;;;;;;;14.10;99.90;;;;;;2084210;28;20371;-68
2023/09/01 00:55:13;;;;;;;;;;;14.00;99.90;;;;;;2079801;28;19916;-68
2023/09/01 00:56:14;;;;;;;;;;;14.00;99.90;;;;;;2072505;28;19998;-69
2023/09/01 00:57:15;;;;;;;;;;;13.90;99.90;;;;;;2075984;28;19928;-69
2023/09/01 00:58:15;;;;;;;;;;;13.90;99.90;;;;;;2063240;28;20008;-69
2023/09/01 00:59:16;;;;;;;;;;;13.90;99.90;;;;;;2064807;28;19919;-68
2023/09/01 01:00:18;;;;;;;;;;;13.90;99.90;;;;;;2076147;28;19959;-68
2023/09/01 01:01:18;;;;;;;;;;;13.80;99.90;;;;;;2076250;28;19917;-68
2023/09/01 01:02:19;;;;;;;;;;;13.80;99.90;;;;;;2076140;28;20406;-70
2023/09/01 01:03:21;;;;;;;;;;;13.80;99.90;;;;;;2073973;28;19925;-70
2023/09/01 01:04:23;;;;;;;;;;;13.70;99.90;;;;;;2066279;28;19929;-70
2023/09/01 01:05:29;;;;;;;;;;;13.70;99.90;;;;;;2067688;28;19921;-70
2023/09/01 01:06:43;;;;;;;;;;;13.70;99.90;;;;;;2076968;28;20208;-70
2023/09/01 01:07:50;;;;;;;;;;;13.60;99.90;;;;;;2073519;28;20356;-70
2023/09/01 01:09:10;;;;;;;;;;;13.60;99.90;;;;;;2075520;28;20420;-70
2023/09/01 01:10:11;;;;;;;;;;;13.60;99.90;;;;;;2069885;28;19920;-68
2023/09/01 01:11:17;;;;;;;;;;;13.50;99.90;;;;;;2075941;28;19983;-69
2023/09/01 01:12:24;;;;;;;;;;;13.40;99.90;;;;;;2075996;28;20003;-69
2023/09/01 01:13:27;;;;;;;;;;;13.40;99.90;;;;;;2075962;28;20130;-69
2023/09/01 01:14:38;;;;;;;;;;;13.40;99.90;;;;;;2075626;28;19939;-69
2023/09/01 01:15:39;;;;;;;;;;;13.40;99.90;;;;;;2076103;28;19921;-69
2023/09/01 01:16:40;;;;;;;;;;;13.30;99.90;;;;;;2072916;28;19939;-69
2023/09/01 01:17:44;;;;;;;;;;;13.30;99.90;;;;;;2076497;28;20384;-70
2023/09/01 01:18:47;;;;;;;;;;;13.30;99.90;;;;;;2076354;28;19925;-70
2023/09/01 01:19:49;;;;;;;;;;;13.20;99.90;;;;;;2075781;28;20404;-70
2023/09/01 01:20:53;;;;;;;;;;;13.20;99.90;;;;;;2079878;28;19921;-70
2023/09/01 01:21:58;;;;;;;;;;;13.20;99.90;;;;;;2075742;28;19913;-71
2023/09/01 01:23:16;;;;;;;;;;;13.20;99.90;;;;;;2075840;28;20384;-70
2023/09/01 01:24:17;;;;;;;;;;;13.10;99.90;;;;;;2070863;28;19910;-70
2023/09/01 01:25:19;;;;;;;;;;;13.10;99.90;;;;;;2071467;28;19923;-70
2023/09/01 01:26:19;;;;;;;;;;;13.10;99.90;;;;;;2073839;28;19971;-70
2023/09/01 01:27:20;;;;;;;;;;;13.10;99.90;;;;;;2076468;28;20423;-68
2023/09/01 01:28:22;;;;;;;;;;;13.10;99.90;;;;;;2076569;28;19967;-69
2023/09/01 01:29:22;;;;;;;;;;;13.10;99.90;;;;;;2075690;28;19920;-68
2023/09/01 01:30:23;;;;;;;;;;;13.10;99.90;;;;;;2067443;28;20189;-68
2023/09/01 01:31:25;;;;;;;;;;;13.10;99.90;;;;;;2067765;28;19917;-68
2023/09/01 01:32:25;;;;;;;;;;;13.10;99.90;;;;;;2067855;28;20486;-68
2023/09/01 01:33:44;;;;;;;;;;;13.10;99.90;;;;;;2067656;28;19943;-70
2023/09/01 01:34:57;;;;;;;;;;;13.10;99.90;;;;;;2068758;28;19918;-70
2023/09/01 01:36:16;;;;;;;;;;;13.10;99.90;;;;;;2069143;28;19972;-70
2023/09/01 01:37:23;;;;;;;;;;;13.20;99.90;;;;;;2072809;28;19913;-70
2023/09/01 01:38:26;;;;;;;;;;;13.20;99.90;;;;;;2076418;28;19978;-70
2023/09/01 01:39:27;;;;;;;;;;;13.20;99.90;;;;;;2075527;28;20051;-69
2023/09/01 01:40:29;;;;;;;;;;;13.30;99.90;;;;;;2075451;28;19975;-69
2023/09/01 01:41:33;;;;;;;;;;;13.30;99.90;;;;;;2075936;28;19913;-69
2023/09/01 01:42:35;;;;;;;;;;;13.30;99.90;;;;;;2075771;28;20490;-69
2023/09/01 01:43:37;;;;;;;;;;;13.30;99.90;;;;;;2076039;28;20174;-70
2023/09/01 01:44:39;;;;;;;;;;;13.30;99.90;;;;;;2079767;28;20578;-70
2023/09/01 01:45:41;;;;;;;;;;;13.30;99.90;;;;;;2075643;28;19971;-68
2023/09/01 01:46:42;;;;;;;;;;;13.30;99.90;;;;;;2072284;28;19995;-69
2023/09/01 01:47:43;;;;;;;;;;;13.20;99.90;;;;;;2076549;28;20104;-69
2023/09/01 01:48:44;;;;;;;;;;;13.20;99.90;;;;;;2075961;28;19928;-69
2023/09/01 01:49:45;;;;;;;;;;;13.30;99.90;;;;;;2076309;28;19917;-69
2023/09/01 01:50:46;;;;;;;;;;;13.20;99.90;;;;;;2076182;28;19978;-68
2023/09/01 01:51:46;;;;;;;;;;;13.20;99.90;;;;;;2076409;28;19913;-69
2023/09/01 01:52:47;;;;;;;;;;;13.20;99.90;;;;;;2076276;28;19944;-69
2023/09/01 01:53:47;;;;;;;;;;;13.20;99.90;;;;;;2076355;28;19913;-69
2023/09/01 01:54:48;;;;;;;;;;;13.20;99.90;;;;;;2083935;28;19917;-69
2023/09/01 01:55:49;;;;;;;;;;;13.20;99.90;;;;;;2071365;28;20027;-69
2023/09/01 01:56:50;;;;;;;;;;;13.20;99.90;;;;;;2067976;28;19988;-69
2023/09/01 01:57:50;;;;;;;;;;;13.20;99.90;;;;;;2071549;28;19928;-69
2023/09/01 01:58:51;;;;;;;;;;;13.20;99.90;;;;;;2064528;28;19924;-69
2023/09/01 01:59:51;;;;;;;;;;;13.20;99.90;;;;;;2075516;28;20003;-69
2023/09/01 02:00:52;;;;;;;;;;;13.20;99.90;;;;;;2075659;28;19917;-69
2023/09/01 02:01:52;;;;;;;;;;;13.20;99.90;;;;;;2075537;28;20115;-69
2023/09/01 02:02:53;;;;;;;;;;;13.20;99.90;;;;;;2076212;28;20525;-69
2023/09/01 02:03:54;;;;;;;;;;;13.20;99.90;;;;;;2075660;28;19944;-69
2023/09/01 02:04:54;;;;;;;;;;;13.20;99.90;;;;;;2075460;28;19949;-69
2023/09/01 02:05:55;;;;;;;;;;;13.20;99.90;;;;;;2075336;28;19932;-69
2023/09/01 02:06:55;;;;;;;;;;;13.20;99.90;;;;;;2067016;28;20036;-69
2023/09/01 02:07:56;;;;;;;;;;;13.20;99.90;;;;;;2072958;28;19952;-68
2023/09/01 02:08:56;;;;;;;;;;;13.20;99.90;;;;;;2075800;28;20272;-69
2023/09/01 02:09:58;;;;;;;;;;;13.20;99.90;;;;;;2063827;28;19989;-69
2023/09/01 02:10:58;;;;;;;;;;;13.20;99.90;;;;;;2069974;28;20282;-69
2023/09/01 02:11:59;;;;;;;;;;;13.20;99.90;;;;;;2083606;28;19921;-69
2023/09/01 02:13:00;;;;;;;;;;;13.20;99.90;;;;;;2083669;28;19913;-69
2023/09/01 02:14:01;;;;;;;;;;;13.20;99.90;;;;;;2075714;28;19956;-69
2023/09/01 02:15:01;;;;;;;;;;;13.20;99.90;;;;;;2067052;28;19925;-69
2023/09/01 02:16:05;;;;;;;;;;;13.20;99.90;;;;;;2066999;28;20044;-69
2023/09/01 02:17:06;;;;;;;;;;;13.20;99.90;;;;;;2075385;28;19917;-69
2023/09/01 02:18:10;;;;;;;;;;;13.20;99.90;;;;;;2076284;28;20384;-69
2023/09/01 02:19:11;;;;;;;;;;;13.20;99.90;;;;;;2075298;28;19985;-68
2023/09/01 02:20:18;;;;;;;;;;;13.20;99.90;;;;;;2060055;28;20024;-69
2023/09/01 02:21:19;;;;;;;;;;;13.20;99.90;;;;;;2060070;28;20352;-69
2023/09/01 02:22:20;;;;;;;;;;;13.20;99.90;;;;;;2075347;28;20366;-70
2023/09/01 02:23:20;;;;;;;;;;;13.20;99.90;;;;;;2075503;28;19913;-69
2023/09/01 02:24:21;;;;;;;;;;;13.20;99.90;;;;;;2075866;28;19913;-69
2023/09/01 02:25:22;;;;;;;;;;;13.20;99.90;;;;;;2075988;28;20399;-69
2023/09/01 02:26:23;;;;;;;;;;;13.10;99.90;;;;;;2076058;28;19971;-69
2023/09/01 02:27:23;;;;;;;;;;;13.10;99.90;;;;;;2076117;28;19936;-69
2023/09/01 02:28:24;;;;;;;;;;;13.10;99.90;;;;;;2076333;28;19921;-69
2023/09/01 02:29:24;;;;;;;;;;;13.10;99.90;;;;;;2076079;28;20330;-69
2023/09/01 02:30:25;;;;;;;;;;;13.10;99.90;;;;;;2076077;28;19913;-69
2023/09/01 02:31:25;;;;;;;;;;;13.10;99.90;;;;;;2075362;28;20398;-69
2023/09/01 02:32:26;;;;;;;;;;;13.10;99.90;;;;;;2067240;28;20427;-68
2023/09/01 02:33:26;;;;;;;;;;;13.10;99.90;;;;;;2067262;28;19917;-68
2023/09/01 02:34:27;;;;;;;;;;;13.10;99.90;;;;;;2075325;28;19921;-68
2023/09/01 02:35:27;;;;;;;;;;;13.10;99.90;;;;;;2075913;28;19917;-68
2023/09/01 02:36:29;;;;;;;;;;;13.10;99.90;;;;;;2075233;28;19999;-68
2023/09/01 02:37:29;;;;;;;;;;;13.10;99.90;;;;;;2075338;28;19917;-68
2023/09/01 02:38:30;;;;;;;;;;;13.10;99.90;;;;;;2075902;28;19925;-68
2023/09/01 02:39:30;;;;;;;;;;;13.00;99.90;;;;;;2075127;28;20372;-68
2023/09/01 02:40:31;;;;;;;;;;;13.00;99.90;;;;;;2066646;28;20133;-68
2023/09/01 02:41:31;;;;;;;;;;;13.00;99.90;;;;;;2075323;28;19917;-68
2023/09/01 02:42:32;;;;;;;;;;;13.00;99.90;;;;;;2075307;28;19917;-68
2023/09/01 02:43:32;;;;;;;;;;;13.00;99.90;;;;;;2075738;28;19917;-69
2023/09/01 02:44:33;;;;;;;;;;;13.00;99.90;;;;;;2079104;28;20048;-69
2023/09/01 02:45:33;;;;;;;;;;;13.00;99.90;;;;;;2081781;28;20350;-70
2023/09/01 02:46:35;;;;;;;;;;;13.00;99.90;;;;;;2075926;28;20190;-70
2023/09/01 02:47:36;;;;;;;;;;;13.00;99.90;;;;;;2075333;28;19917;-69
2023/09/01 02:48:36;;;;;;;;;;;12.90;99.90;;;;;;2074927;28;19920;-70
2023/09/01 02:49:37;;;;;;;;;;;12.90;99.90;;;;;;2074936;28;19920;-70
2023/09/01 02:50:38;;;;;;;;;;;12.90;99.90;;;;;;2075608;28;20138;-70
2023/09/01 02:51:39;;;;;;;;;;;12.90;99.90;;;;;;2075712;28;20312;-70
2023/09/01 02:52:39;;;;;;;;;;;12.90;99.90;;;;;;2075566;28;19924;-69
2023/09/01 02:53:40;;;;;;;;;;;12.90;99.90;;;;;;2075838;28;20403;-70
2023/09/01 02:54:40;;;;;;;;;;;12.80;99.90;;;;;;2075756;28;19917;-69
2023/09/01 02:55:41;;;;;;;;;;;12.80;99.90;;;;;;2075804;28;20255;-69
2023/09/01 02:56:42;;;;;;;;;;;12.80;99.90;;;;;;2075105;28;19913;-69
2023/09/01 02:57:43;;;;;;;;;;;12.80;99.90;;;;;;2075009;28;19924;-69
2023/09/01 02:58:44;;;;;;;;;;;12.80;99.90;;;;;;2075169;28;19940;-69
2023/09/01 02:59:45;;;;;;;;;;;12.80;99.90;;;;;;2075145;28;20007;-69
2023/09/01 03:00:46;;;;;;;;;;;12.80;99.90;;;;;;2075118;28;19917;-69
2023/09/01 03:01:46;;;;;;;;;;;12.80;99.90;;;;;;2083550;28;19956;-69
2023/09/01 03:02:47;;;;;;;;;;;12.80;99.90;;;;;;2083145;28;19913;-69
2023/09/01 03:03:48;;;;;;;;;;;12.80;99.90;;;;;;2074892;28;19921;-70
2023/09/01 03:04:50;;;;;;;;;;;12.80;99.90;;;;;;2075036;28;19923;-69
2023/09/01 03:05:51;;;;;;;;;;;12.80;99.90;;;;;;2087128;28;19966;-69
2023/09/01 03:06:51;;;;;;;;;;;12.80;99.90;;;;;;2079655;28;19966;-69
2023/09/01 03:07:52;;;;;;;;;;;12.80;99.90;;;;;;2075111;28;19980;-69
2023/09/01 03:08:52;;;;;;;;;;;12.80;99.90;;;;;;2066685;28;19924;-70
2023/09/01 03:09:53;;;;;;;;;;;12.80;99.90;;;;;;2064832;28;19918;-69
2023/09/01 03:10:53;;;;;;;;;;;12.80;99.90;;;;;;2074519;28;20206;-68
2023/09/01 03:11:54;;;;;;;;;;;12.80;99.90;;;;;;2078591;28;19921;-68
2023/09/01 03:12:54;;;;;;;;;;;12.80;99.90;;;;;;2074962;28;19987;-67
2023/09/01 03:13:55;;;;;;;;;;;12.80;99.90;;;;;;2066598;28;20032;-71
2023/09/01 03:14:56;;;;;;;;;;;12.80;99.90;;;;;;2066751;28;19914;-70
2023/09/01 03:15:56;;;;;;;;;;;12.80;99.90;;;;;;2074019;28;19925;-70
2023/09/01 03:16:57;;;;;;;;;;;12.80;99.90;;;;;;2063617;28;19999;-70
2023/09/01 03:17:58;;;;;;;;;;;12.80;99.90;;;;;;2058685;28;19921;-69
2023/09/01 03:18:59;;;;;;;;;;;12.80;99.90;;;;;;2075414;28;19959;-69
2023/09/01 03:20:00;;;;;;;;;;;12.80;99.90;;;;;;2076003;28;19917;-69
2023/09/01 03:21:10;;;;;;;;;;;12.80;99.90;;;;;;2075713;28;19967;-69
2023/09/01 03:22:11;;;;;;;;;;;12.80;99.90;;;;;;2083488;28;19932;-69
2023/09/01 03:23:11;;;;;;;;;;;12.80;99.90;;;;;;2074962;28;19923;-69
2023/09/01 03:24:12;;;;;;;;;;;12.80;99.90;;;;;;2074971;28;19956;-69
2023/09/01 03:25:13;;;;;;;;;;;12.70;99.90;;;;;;2075307;28;20163;-69
2023/09/01 03:26:13;;;;;;;;;;;12.70;99.90;;;;;;2074311;28;20481;-69
2023/09/01 03:27:14;;;;;;;;;;;12.70;99.90;;;;;;2074694;28;19921;-69
2023/09/01 03:28:14;;;;;;;;;;;12.70;99.90;;;;;;2075588;28;19968;-69
2023/09/01 03:29:15;;;;;;;;;;;12.70;99.90;;;;;;2074790;28;19917;-69
2023/09/01 03:30:16;;;;;;;;;;;12.70;99.90;;;;;;2066712;28;19914;-69
2023/09/01 03:31:17;;;;;;;;;;;12.70;99.90;;;;;;2066988;28;20070;-69
2023/09/01 03:32:18;;;;;;;;;;;12.70;99.90;;;;;;2066441;28;19913;-69
2023/09/01 03:33:19;;;;;;;;;;;12.70;99.90;;;;;;2066733;28;19993;-69
2023/09/01 03:34:19;;;;;;;;;;;12.70;99.90;;;;;;2074828;28;20416;-69
2023/09/01 03:35:20;;;;;;;;;;;12.70;99.90;;;;;;2074672;28;20376;-69
2023/09/01 03:36:20;;;;;;;;;;;12.70;99.90;;;;;;2058281;28;19943;-69
2023/09/01 03:37:22;;;;;;;;;;;12.70;99.90;;;;;;2066567;28;19924;-68
2023/09/01 03:38:22;;;;;;;;;;;12.70;99.90;;;;;;2078654;28;20636;-69
2023/09/01 03:39:23;;;;;;;;;;;12.70;99.90;;;;;;2070764;28;19918;-69
2023/09/01 03:40:23;;;;;;;;;;;12.70;99.90;;;;;;2065897;28;19922;-69
2023/09/01 03:41:24;;;;;;;;;;;12.70;99.90;;;;;;2074419;28;19917;-70
2023/09/01 03:42:25;;;;;;;;;;;12.70;99.90;;;;;;2078396;28;19917;-70
2023/09/01 03:43:26;;;;;;;;;;;12.70;99.90;;;;;;2075225;28;20440;-70
2023/09/01 03:44:26;;;;;;;;;;;12.70;99.90;;;;;;2074832;28;20562;-70
2023/09/01 03:45:27;;;;;;;;;;;12.70;99.90;;;;;;2074774;28;19952;-70
2023/09/01 03:46:27;;;;;;;;;;;12.70;99.90;;;;;;2074749;28;20415;-70
2023/09/01 03:47:28;;;;;;;;;;;12.60;99.90;;;;;;2080348;28;20109;-70
2023/09/01 03:48:28;;;;;;;;;;;12.60;99.90;;;;;;2069628;28;20265;-70
2023/09/01 03:49:29;;;;;;;;;;;12.70;99.90;;;;;;2061410;28;19944;-70
2023/09/01 03:50:30;;;;;;;;;;;12.60;99.90;;;;;;2058494;28;19981;-70
2023/09/01 03:51:31;;;;;;;;;;;12.70;99.90;;;;;;2073796;28;20023;-69
2023/09/01 03:52:31;;;;;;;;;;;12.70;99.90;;;;;;2074635;28;19921;-70
2023/09/01 03:53:32;;;;;;;;;;;12.70;99.90;;;;;;2066522;28;19920;-69
2023/09/01 03:54:33;;;;;;;;;;;12.70;99.90;;;;;;2074405;28;19917;-70
2023/09/01 03:55:34;;;;;;;;;;;12.70;99.90;;;;;;2074935;28;19968;-69
2023/09/01 03:56:35;;;;;;;;;;;12.70;99.90;;;;;;2068001;28;19961;-69
2023/09/01 03:57:35;;;;;;;;;;;12.70;99.90;;;;;;2068520;28;19928;-69
2023/09/01 03:58:36;;;;;;;;;;;12.60;99.90;;;;;;2074308;28;20409;-69
2023/09/01 03:59:37;;;;;;;;;;;12.70;99.90;;;;;;2075320;28;19959;-69
2023/09/01 04:00:38;;;;;;;;;;;12.70;99.90;;;;;;2074415;28;20372;-70
2023/09/01 04:01:38;;;;;;;;;;;12.70;99.90;;;;;;2059971;28;19920;-70
2023/09/01 04:02:39;;;;;;;;;;;12.70;99.90;;;;;;2064720;28;19918;-70
2023/09/01 04:03:40;;;;;;;;;;;12.70;99.90;;;;;;2074873;28;20366;-70
2023/09/01 04:04:40;;;;;;;;;;;12.70;99.90;;;;;;2075618;28;19924;-70
2023/09/01 04:05:41;;;;;;;;;;;12.70;99.90;;;;;;2074465;28;19924;-69
2023/09/01 04:06:41;;;;;;;;;;;12.70;99.90;;;;;;2066446;28;20373;-69
2023/09/01 04:07:42;;;;;;;;;;;12.70;99.90;;;;;;2066601;28;20536;-68
2023/09/01 04:08:42;;;;;;;;;;;12.70;99.90;;;;;;2074461;28;19968;-68
2023/09/01 04:09:43;;;;;;;;;;;12.70;99.90;;;;;;2072050;28;20319;-69
2023/09/01 04:10:45;;;;;;;;;;;12.70;99.90;;;;;;2070393;28;20370;-69
2023/09/01 04:11:46;;;;;;;;;;;12.70;99.90;;;;;;2079632;28;19928;-69
2023/09/01 04:12:46;;;;;;;;;;;12.60;99.90;;;;;;2075536;28;20623;-68
2023/09/01 04:13:47;;;;;;;;;;;12.70;99.90;;;;;;2066748;28;19917;-69
2023/09/01 04:14:47;;;;;;;;;;;12.60;99.90;;;;;;2066578;28;20020;-69
2023/09/01 04:15:49;;;;;;;;;;;12.60;99.90;;;;;;2074895;28;19921;-69
2023/09/01 04:16:50;;;;;;;;;;;12.60;99.90;;;;;;2066624;28;20365;-69
2023/09/01 04:17:51;;;;;;;;;;;12.70;99.90;;;;;;2066221;28;19917;-69
2023/09/01 04:18:51;;;;;;;;;;;12.70;99.90;;;;;;2066968;28;20277;-79
2023/09/01 04:19:53;;;;;;;;;;;12.70;99.90;;;;;;2074860;28;19959;-79
2023/09/01 04:20:55;;;;;;;;;;;12.60;99.90;;;;;;2074606;28;19914;-74
2023/09/01 04:21:55;;;;;;;;;;;12.60;99.90;;;;;;2074909;28;20147;-68
2023/09/01 04:22:56;;;;;;;;;;;12.60;99.90;;;;;;2067405;28;20220;-84
2023/09/01 04:23:56;;;;;;;;;;;12.60;99.90;;;;;;2067897;28;19909;-80
2023/09/01 04:24:57;;;;;;;;;;;12.60;99.90;;;;;;2068782;28;19925;-73
2023/09/01 04:25:57;;;;;;;;;;;12.60;99.90;;;;;;2076335;28;19917;-74
2023/09/01 04:27:01;;;;;;;;;;;12.60;99.90;;;;;;2075807;28;20884;-73
2023/09/01 04:28:02;;;;;;;;;;;12.60;99.90;;;;;;2075697;28;19917;-72
2023/09/01 04:29:03;;;;;;;;;;;12.60;99.90;;;;;;2070436;28;19924;-73
2023/09/01 04:30:05;;;;;;;;;;;12.60;99.90;;;;;;2063556;28;20399;-73
2023/09/01 04:31:27;;;;;;;;;;;12.60;99.90;;;;;;2061427;28;19920;-73
2023/09/01 04:32:28;;;;;;;;;;;12.60;99.90;;;;;;2072070;28;19960;-74
2023/09/01 04:33:29;;;;;;;;;;;12.60;99.90;;;;;;2076027;28;19917;-73
2023/09/01 04:34:30;;;;;;;;;;;12.60;99.90;;;;;;2075406;28;20032;-73
2023/09/01 04:35:30;;;;;;;;;;;12.70;99.90;;;;;;2075393;28;19928;-73
2023/09/01 04:36:31;;;;;;;;;;;12.70;99.90;;;;;;2071375;28;20135;-73
2023/09/01 04:37:33;;;;;;;;;;;12.70;99.90;;;;;;2075392;28;20325;-73
2023/09/01 04:38:33;;;;;;;;;;;12.70;99.90;;;;;;2075772;28;19917;-73
2023/09/01 04:39:34;;;;;;;;;;;12.70;99.90;;;;;;2067396;28;19917;-73
2023/09/01 04:40:34;;;;;;;;;;;12.70;99.90;;;;;;2059070;28;19922;-73
2023/09/01 04:41:35;;;;;;;;;;;12.80;99.90;;;;;;2063285;28;20257;-74
2023/09/01 04:42:35;;;;;;;;;;;12.80;99.90;;;;;;2060850;28;19914;-74
2023/09/01 04:43:36;;;;;;;;;;;12.80;99.90;;;;;;2067563;28;20371;-74
2023/09/01 04:44:37;;;;;;;;;;;12.80;99.90;;;;;;2067300;28;19914;-73
2023/09/01 04:45:37;;;;;;;;;;;12.80;99.90;;;;;;2075519;28;19996;-73
2023/09/01 04:46:38;;;;;;;;;;;12.80;99.90;;;;;;2075457;28;19924;-74
2023/09/01 04:47:38;;;;;;;;;;;12.80;99.90;;;;;;2067607;28;19983;-73
2023/09/01 04:48:40;;;;;;;;;;;12.80;99.90;;;;;;2066794;28;20352;-74
2023/09/01 04:49:40;;;;;;;;;;;12.80;99.90;;;;;;2075549;28;19929;-74
2023/09/01 04:50:41;;;;;;;;;;;12.90;99.90;;;;;;2073920;28;19956;-74
2023/09/01 04:51:42;;;;;;;;;;;12.90;99.90;;;;;;2067983;28;19961;-73
2023/09/01 04:52:42;;;;;;;;;;;12.90;99.90;;;;;;2063270;28;19963;-73
2023/09/01 04:53:43;;;;;;;;;;;12.90;99.90;;;;;;2069748;28;19913;-73
2023/09/01 04:54:43;;;;;;;;;;;12.90;99.90;;;;;;2067124;28;19921;-73
2023/09/01 04:55:44;;;;;;;;;;;12.90;99.90;;;;;;2075546;28;20119;-73
2023/09/01 04:56:45;;;;;;;;;;;12.90;99.90;;;;;;2071296;28;19932;-74
2023/09/01 04:57:45;;;;;;;;;;;12.90;99.90;;;;;;2059449;28;19948;-73
2023/09/01 04:58:46;;;;;;;;;;;12.90;99.90;;;;;;2063202;28;19921;-73
2023/09/01 04:59:48;;;;;;;;;;;13.00;99.90;;;;;;2075607;28;19961;-73
2023/09/01 05:01:00;;;;;;;;;;;13.00;99.90;;;;;;2076425;28;20404;-74
2023/09/01 05:02:00;;;;;;;;;;;13.00;99.90;;;;;;2070903;28;20365;-74
2023/09/01 05:03:01;;;;;;;;;;;13.10;99.90;;;;;;2070994;28;19917;-73
2023/09/01 05:04:02;;;;;;;;;;;13.10;99.90;;;;;;2068224;28;19913;-74
2023/09/01 05:05:04;;;;;;;;;;;13.10;99.90;;;;;;2067247;28;19934;-73
2023/09/01 05:06:05;;;;;;;;;;;13.10;99.90;;;;;;2075385;28;20042;-72
2023/09/01 05:07:06;;;;;;;;;;;13.10;99.90;;;;;;2067412;28;20419;-75
2023/09/01 05:08:06;;;;;;;;;;;13.20;99.90;;;;;;2067382;28;19913;-73
2023/09/01 05:09:07;;;;;;;;;;;13.20;99.90;;;;;;2073491;28;19924;-74
2023/09/01 05:10:08;;;;;;;;;;;13.20;99.90;;;;;;2070685;28;19917;-74
2023/09/01 05:11:08;;;;;;;;;;;13.20;99.90;;;;;;2075606;28;20032;-74
2023/09/01 05:12:09;;;;;;;;;;;13.20;99.90;;;;;;2067548;28;19937;-75
2023/09/01 05:13:09;;;;;;;;;;;13.20;99.90;;;;;;2065230;28;19918;-74
2023/09/01 05:14:10;;;;;;;;;;;13.30;99.90;;;;;;2065305;28;20398;-74
2023/09/01 05:15:12;;;;;;;;;;;13.30;99.90;;;;;;2073472;28;20447;-75
2023/09/01 05:16:13;;;;;;;;;;;13.30;99.90;;;;;;2067263;28;20184;-73
2023/09/01 05:17:13;;;;;;;;;;;13.30;99.90;;;;;;2059347;28;20574;-73
2023/09/01 05:18:15;;;;;;;;;;;13.40;99.90;;;;;;2067316;28;20011;-73
2023/09/01 05:19:15;;;;;;;;;;;13.40;99.90;;;;;;2075441;28;20036;-73
2023/09/01 05:20:16;;;;;;;;;;;13.40;99.90;;;;;;2079402;28;19971;-73
2023/09/01 05:21:16;;;;;;;;;;;13.40;99.90;;;;;;2075383;28;19916;-73
2023/09/01 05:22:17;;;;;;;;;;;13.40;99.90;;;;;;2067517;28;20416;-74
2023/09/01 05:23:18;;;;;;;;;;;13.50;99.90;;;;;;2067142;28;19925;-73
2023/09/01 05:24:18;;;;;;;;;;;13.50;99.90;;;;;;2067409;28;19910;-73
2023/09/01 05:25:19;;;;;;;;;;;13.50;99.90;;;;;;2067111;28;20344;-73
2023/09/01 05:26:19;;;;;;;;;;;13.50;99.90;;;;;;2067205;28;20000;-73
2023/09/01 05:27:20;;;;;;;;;;;13.60;99.90;;;;;;2007548;28;1721205;-72
2023/09/01 05:28:21;;;;;;;;;;;13.60;99.90;;;;;;2067430;28;19918;-72
2023/09/01 05:29:21;;;;;;;;;;;13.60;99.90;;;;;;2071473;28;19913;-73
2023/09/01 05:30:22;;;;;;;;;;;13.60;99.90;;;;;;2076356;28;20626;-72
2023/09/01 05:31:22;;;;;;;;;;;13.60;99.90;;;;;;2079663;28;19991;-72
2023/09/01 05:32:23;;;;;;;;;;;13.70;99.90;;;;;;2067577;28;19921;-72
2023/09/01 05:33:24;;;;;;;;;;;13.70;99.90;;;;;;2067033;28;19918;-72
2023/09/01 05:34:24;;;;;;;;;;;13.70;99.90;;;;;;2059775;28;19985;-73
2023/09/01 05:35:26;;;;;;;;;;;13.70;99.90;;;;;;2067567;28;20343;-72
2023/09/01 05:36:29;;;;;;;;;;;13.70;99.90;;;;;;2068943;28;20371;-72
2023/09/01 05:37:30;;;;;;;;;;;13.80;99.90;;;;;;2080705;28;19924;-72
2023/09/01 05:38:31;;;;;;;;;;;13.80;99.90;;;;;;2086557;28;19923;-73
2023/09/01 05:39:31;;;;;;;;;;;13.80;99.90;;;;;;2076403;28;20307;-72
2023/09/01 05:40:32;;;;;;;;;;;13.80;99.90;;;;;;2075635;28;20446;-73
2023/09/01 05:41:32;;;;;;;;;;;13.90;99.90;;;;;;2067459;28;19932;-72
2023/09/01 05:42:33;;;;;;;;;;;13.90;99.90;;;;;;2075629;28;19925;-74
2023/09/01 05:43:33;;;;;;;;;;;13.90;99.90;;;;;;2070834;28;20347;-74
2023/09/01 05:44:35;;;;;;;;;;;13.90;99.90;;;;;;2060542;28;19967;-72
2023/09/01 05:45:36;;;;;;;;;;;13.90;99.90;;;;;;2075766;28;19987;-73
2023/09/01 05:46:38;;;;;;;;;;;13.90;99.90;;;;;;2070094;28;20289;-73
2023/09/01 05:47:38;;;;;;;;;;;13.90;99.90;;;;;;2059746;28;20009;-73
2023/09/01 05:48:39;;;;;;;;;;;13.90;99.90;;;;;;2053098;28;19918;-73
2023/09/01 05:49:40;;;;;;;;;;;13.90;99.90;;;;;;2059472;28;19918;-73
2023/09/01 05:50:42;;;;;;;;;;;13.90;99.90;;;;;;2067390;28;19992;-73
2023/09/01 05:51:44;;;;;;;;;;;14.00;99.90;;;;;;2063810;28;20491;-73
2023/09/01 05:52:44;;;;;;;;;;;14.00;99.90;;;;;;2075603;28;19917;-73
2023/09/01 05:53:45;;;;;;;;;;;14.00;99.90;;;;;;2075957;28;20269;-74
2023/09/01 05:54:45;;;;;;;;;;;14.00;99.90;;;;;;2075751;28;19953;-73
2023/09/01 05:55:46;;;;;;;;;;;14.10;99.90;;;;;;2076431;28;20461;-73
2023/09/01 05:56:46;;;;;;;;;;;14.20;99.90;;;;;;2076563;28;19928;-74
2023/09/01 05:57:47;;;;;;;;;;;14.20;99.90;;;;;;2084351;28;20375;-73